Time;durP1;ratioP1;P1;durP2;ratioP2;P2;SDS_P1;SDS_P2;PMS_P1;PMS_P2;Temp;Humidity;BMP_temperature;BMP_pressure;BME280_temperature;BME280_humidity;BME280_pressure;Samples;Min_cycle;Max_cycle;Signal;HPM_P1;HPM_P2
2021/07/22 00:02:11;;;;;;;39.40;20.50;;;22.30;60.00;;;;;;5009951;28;20199;-87
2021/07/22 00:04:37;;;;;;;40.60;20.80;;;22.30;59.80;;;;;;5004907;28;20187;-86
2021/07/22 00:07:03;;;;;;;39.23;20.70;;;22.30;60.00;;;;;;5027467;28;20575;-86
2021/07/22 00:09:28;;;;;;;32.00;19.43;;;22.10;60.20;;;;;;5012839;28;20542;-86
2021/07/22 00:11:54;;;;;;;33.10;20.27;;;22.30;59.80;;;;;;5010706;28;20731;-87
2021/07/22 00:14:20;;;;;;;30.13;18.70;;;22.10;59.90;;;;;;4995148;28;20580;-88
2021/07/22 00:16:46;;;;;;;31.07;17.33;;;22.10;59.30;;;;;;4995060;28;20178;-87
2021/07/22 00:19:12;;;;;;;29.57;16.80;;;22.10;58.90;;;;;;5010477;28;20561;-87
2021/07/22 00:21:38;;;;;;;28.73;18.23;;;22.00;58.20;;;;;;5009526;28;20274;-87
2021/07/22 00:24:04;;;;;;;29.00;17.27;;;22.00;58.10;;;;;;5010676;28;20434;-88
2021/07/22 00:26:30;;;;;;;29.20;17.27;;;21.90;58.30;;;;;;4994846;28;20465;-86
2021/07/22 00:28:57;;;;;;;33.20;19.73;;;21.80;58.70;;;;;;5010215;28;20529;-86
2021/07/22 00:31:23;;;;;;;28.97;19.50;;;21.90;58.80;;;;;;4993045;28;20417;-87
2021/07/22 00:33:49;;;;;;;30.53;18.37;;;21.80;59.00;;;;;;4994769;28;20789;-86
2021/07/22 00:36:16;;;;;;;34.63;19.80;;;21.90;59.00;;;;;;4994832;28;20437;-87
2021/07/22 00:38:42;;;;;;;35.03;21.00;;;21.80;59.20;;;;;;5001274;28;20421;-87
2021/07/22 00:41:11;;;;;;;31.77;19.07;;;21.90;59.30;;;;;;5029471;28;20425;-87
2021/07/22 00:43:40;;;;;;;34.20;18.67;;;21.80;59.50;;;;;;5013858;28;20483;-87
2021/07/22 00:46:06;;;;;;;34.57;19.50;;;21.80;59.60;;;;;;5014335;28;20944;-87
2021/07/22 00:48:32;;;;;;;34.20;21.27;;;21.80;59.50;;;;;;5032822;28;20785;-87
2021/07/22 00:50:58;;;;;;;29.47;17.87;;;21.90;59.40;;;;;;5045612;28;20500;-87
2021/07/22 00:53:23;;;;;;;36.83;18.87;;;21.90;59.10;;;;;;5020328;28;20707;-87
2021/07/22 00:55:49;;;;;;;30.90;18.77;;;22.00;58.90;;;;;;5029600;28;20549;-87
2021/07/22 00:58:15;;;;;;;31.57;19.20;;;21.90;58.90;;;;;;5030209;28;20178;-87
2021/07/22 01:00:40;;;;;;;31.27;18.30;;;22.00;58.90;;;;;;5031801;28;20187;-87
2021/07/22 01:03:06;;;;;;;36.30;18.77;;;22.00;59.00;;;;;;5013421;28;20536;-87
2021/07/22 01:05:32;;;;;;;33.63;18.80;;;22.00;58.90;;;;;;5041937;28;20193;-88
2021/07/22 01:07:58;;;;;;;37.50;21.30;;;22.00;59.00;;;;;;5040084;28;20487;-87
2021/07/22 01:10:23;;;;;;;35.00;18.67;;;21.80;59.20;;;;;;5029560;28;20516;-87
2021/07/22 01:12:49;;;;;;;35.93;18.80;;;21.70;60.20;;;;;;5030091;28;20245;-87
2021/07/22 01:15:15;;;;;;;36.80;19.93;;;21.70;59.70;;;;;;5012197;28;20232;-87
2021/07/22 01:17:46;;;;;;;36.00;20.23;;;21.60;60.10;;;;;;5029052;28;20194;-87
2021/07/22 01:20:23;;;;;;;30.93;18.87;;;21.60;60.10;;;;;;5014513;28;20294;-87
2021/07/22 01:22:50;;;;;;;34.17;20.95;;;21.50;60.40;;;;;;5013024;28;20448;-87
2021/07/22 01:25:17;;;;;;;32.87;19.70;;;21.40;60.50;;;;;;5029783;28;20217;-87
2021/07/22 01:27:43;;;;;;;33.80;20.13;;;21.40;60.80;;;;;;5028577;28;20425;-87
2021/07/22 01:30:09;;;;;;;32.15;18.85;;;21.40;61.80;;;;;;5017992;28;20187;-88
2021/07/22 01:32:35;;;;;;;34.35;20.92;;;21.30;61.30;;;;;;4992410;28;20199;-88
2021/07/22 01:35:01;;;;;;;39.20;22.00;;;21.30;61.30;;;;;;4992777;28;20183;-87
2021/07/22 01:37:27;;;;;;;36.27;20.70;;;21.40;61.20;;;;;;4992740;28;20183;-87
2021/07/22 01:39:53;;;;;;;35.13;22.73;;;21.40;61.10;;;;;;4992518;28;20948;-87
2021/07/22 01:42:19;;;;;;;47.37;23.80;;;21.40;60.90;;;;;;4993462;28;20194;-87
2021/07/22 01:44:45;;;;;;;41.80;23.70;;;21.40;61.10;;;;;;4993663;28;20426;-87
2021/07/22 01:47:10;;;;;;;46.27;23.07;;;21.40;61.10;;;;;;4992552;28;20202;-87
2021/07/22 01:49:36;;;;;;;39.20;21.57;;;21.50;61.10;;;;;;4992890;28;20203;-87
2021/07/22 01:52:04;;;;;;;47.87;22.93;;;21.40;61.20;;;;;;4992322;28;20682;-87
2021/07/22 01:54:30;;;;;;;42.47;24.58;;;21.40;61.40;;;;;;4993805;28;20415;-87
2021/07/22 01:57:00;;;;;;;40.70;23.50;;;21.40;61.70;;;;;;4992649;28;20198;-87
2021/07/22 01:59:26;;;;;;;41.90;24.70;;;21.40;62.00;;;;;;5015782;28;20481;-87
2021/07/22 02:01:52;;;;;;;42.78;22.65;;;21.40;61.80;;;;;;4995004;28;20214;-87
2021/07/22 02:04:17;;;;;;;52.43;25.50;;;21.40;62.00;;;;;;5006990;28;20485;-87
2021/07/22 02:06:43;;;;;;;44.40;23.93;;;21.30;62.20;;;;;;5004892;28;20207;-87
2021/07/22 02:09:09;;;;;;;45.10;23.50;;;21.30;62.40;;;;;;4992686;28;20238;-87
2021/07/22 02:11:34;;;;;;;38.77;24.33;;;21.10;62.10;;;;;;4991961;28;20182;-88
2021/07/22 02:14:00;;;;;;;45.27;24.27;;;21.20;62.30;;;;;;4996977;28;20222;-88
2021/07/22 02:16:26;;;;;;;47.87;25.20;;;21.20;62.50;;;;;;4994822;28;20614;-87
2021/07/22 02:18:52;;;;;;;50.22;26.42;;;21.10;62.30;;;;;;4999694;28;20186;-87
2021/07/22 02:21:18;;;;;;;40.87;23.47;;;21.10;62.50;;;;;;4997336;28;20195;-87
2021/07/22 02:23:43;;;;;;;48.13;25.67;;;21.10;62.60;;;;;;4996212;28;20203;-87
2021/07/22 02:26:09;;;;;;;47.20;25.30;;;21.00;62.70;;;;;;4995440;28;20214;-87
2021/07/22 02:28:36;;;;;;;52.90;25.90;;;21.00;62.90;;;;;;4996688;28;20175;-87
2021/07/22 02:31:02;;;;;;;52.08;24.23;;;20.90;63.00;;;;;;4995539;28;20423;-86
2021/07/22 02:33:29;;;;;;;52.92;27.38;;;21.00;63.00;;;;;;4995758;28;20222;-86
2021/07/22 02:35:58;;;;;;;43.13;25.90;;;21.00;63.00;;;;;;4997381;28;20646;-87
2021/07/22 02:38:23;;;;;;;51.67;25.27;;;21.00;63.10;;;;;;5002653;28;20185;-88
2021/07/22 02:40:49;;;;;;;48.13;26.20;;;21.00;63.20;;;;;;5035292;28;20190;-87
2021/07/22 02:43:15;;;;;;;48.80;26.50;;;20.90;63.40;;;;;;5031142;28;20282;-88
2021/07/22 02:45:41;;;;;;;43.40;24.23;;;20.90;63.80;;;;;;5031464;28;20217;-87
2021/07/22 02:48:09;;;;;;;46.22;24.08;;;20.90;63.80;;;;;;5032034;28;20209;-88
2021/07/22 02:50:35;;;;;;;43.20;24.15;;;20.90;63.90;;;;;;5016289;28;20183;-87
2021/07/22 02:53:01;;;;;;;43.72;25.05;;;21.00;63.80;;;;;;5031138;28;20226;-87
2021/07/22 02:55:27;;;;;;;51.38;23.92;;;20.90;64.10;;;;;;5031327;28;20230;-87
2021/07/22 02:57:53;;;;;;;53.50;26.23;;;20.80;64.40;;;;;;5016591;28;20175;-87
2021/07/22 03:00:19;;;;;;;40.53;23.47;;;20.80;64.30;;;;;;5032473;28;20443;-86
2021/07/22 03:02:45;;;;;;;47.30;26.98;;;20.70;64.50;;;;;;5026309;28;20202;-86
2021/07/22 03:05:12;;;;;;;48.23;26.37;;;20.70;64.80;;;;;;5036557;28;20190;-86
2021/07/22 03:07:38;;;;;;;48.58;26.27;;;20.80;64.70;;;;;;5051300;28;20215;-86
2021/07/22 03:10:04;;;;;;;46.47;27.00;;;20.80;64.80;;;;;;5024360;28;20175;-87
2021/07/22 03:12:30;;;;;;;48.22;23.75;;;20.80;64.60;;;;;;5031644;28;20457;-86
2021/07/22 03:14:56;;;;;;;42.88;24.58;;;20.80;64.70;;;;;;5031692;28;20193;-87
2021/07/22 03:17:22;;;;;;;46.23;25.57;;;20.60;65.00;;;;;;5032620;28;20182;-86
2021/07/22 03:19:48;;;;;;;50.87;25.40;;;20.60;65.20;;;;;;5031242;28;20252;-87
2021/07/22 03:22:14;;;;;;;42.83;25.63;;;20.60;65.50;;;;;;5031280;28;20696;-87
2021/07/22 03:24:40;;;;;;;46.15;24.98;;;20.60;65.60;;;;;;5032049;28;20190;-86
2021/07/22 03:27:06;;;;;;;41.17;24.53;;;20.60;65.80;;;;;;5031898;28;20217;-86
2021/07/22 03:29:32;;;;;;;44.50;25.37;;;20.60;65.70;;;;;;5027230;28;20776;-87
2021/07/22 03:32:00;;;;;;;38.83;23.77;;;20.70;65.60;;;;;;4997486;28;20430;-86
2021/07/22 03:34:25;;;;;;;46.10;23.30;;;20.80;65.20;;;;;;4995970;28;20643;-86
2021/07/22 03:36:51;;;;;;;41.20;23.20;;;20.70;65.40;;;;;;4998246;28;20190;-87
2021/07/22 03:39:17;;;;;;;50.13;25.30;;;20.70;65.70;;;;;;4995307;28;20183;-87
2021/07/22 03:41:48;;;;;;;46.63;23.70;;;20.70;66.00;;;;;;4996349;28;20333;-87
2021/07/22 03:44:17;;;;;;;45.03;24.88;;;20.70;66.10;;;;;;4996462;28;20214;-87
2021/07/22 03:46:43;;;;;;;51.45;27.98;;;20.70;66.10;;;;;;5006018;28;20203;-86
2021/07/22 03:49:09;;;;;;;45.17;25.47;;;20.60;66.10;;;;;;5009636;28;20179;-87
2021/07/22 03:51:35;;;;;;;54.13;27.83;;;20.50;66.50;;;;;;5007504;28;20184;-87
2021/07/22 03:54:00;;;;;;;50.80;26.73;;;20.40;66.70;;;;;;4994974;28;20183;-87
2021/07/22 03:56:27;;;;;;;47.77;25.50;;;20.50;67.00;;;;;;4994138;28;20957;-88
2021/07/22 03:58:53;;;;;;;48.70;27.20;;;20.40;67.00;;;;;;4993995;28;20179;-88
2021/07/22 04:01:18;;;;;;;49.58;26.05;;;20.40;67.20;;;;;;5007494;28;20191;-88
2021/07/22 04:03:44;;;;;;;49.57;28.90;;;20.40;67.20;;;;;;4995394;28;20225;-89
2021/07/22 04:06:11;;;;;;;51.20;26.73;;;20.40;67.30;;;;;;4993991;28;20662;-87
2021/07/22 04:08:37;;;;;;;57.00;28.02;;;20.40;67.50;;;;;;4994285;28;20203;-87
2021/07/22 04:11:03;;;;;;;54.55;27.40;;;20.40;67.50;;;;;;4994284;28;20258;-86
2021/07/22 04:13:29;;;;;;;47.37;26.33;;;20.40;67.50;;;;;;4996986;28;20290;-86
2021/07/22 04:15:54;;;;;;;56.20;25.80;;;20.50;67.60;;;;;;5008662;28;20424;-88
2021/07/22 04:18:20;;;;;;;56.70;29.73;;;20.60;67.30;;;;;;4994699;28;20254;-87
2021/07/22 04:20:46;;;;;;;55.57;27.70;;;20.60;67.50;;;;;;4996527;28;20202;-87
2021/07/22 04:23:12;;;;;;;46.97;24.50;;;20.70;67.30;;;;;;4993530;28;20548;-86
2021/07/22 04:25:37;;;;;;;49.47;26.93;;;20.70;67.10;;;;;;4994078;28;20263;-86
2021/07/22 04:28:03;;;;;;;49.17;26.50;;;20.60;67.40;;;;;;4993927;28;20164;-87
2021/07/22 04:30:29;;;;;;;60.17;27.00;;;20.60;67.70;;;;;;4994732;28;20186;-87
2021/07/22 04:32:58;;;;;;;50.17;27.90;;;20.50;67.90;;;;;;4995339;28;20471;-86
2021/07/22 04:35:23;;;;;;;47.00;27.40;;;20.70;67.90;;;;;;4993901;28;20175;-87
2021/07/22 04:37:49;;;;;;;51.07;26.70;;;20.60;67.80;;;;;;4993948;28;20561;-87
2021/07/22 04:40:15;;;;;;;51.37;27.83;;;20.50;68.30;;;;;;4992635;28;20179;-87
2021/07/22 04:42:40;;;;;;;51.03;25.77;;;20.60;68.00;;;;;;4993105;28;20305;-87
2021/07/22 04:45:07;;;;;;;52.03;26.67;;;20.60;68.00;;;;;;4994639;28;20180;-86
2021/07/22 04:47:33;;;;;;;44.38;24.83;;;20.60;67.80;;;;;;4993311;28;20207;-87
2021/07/22 04:49:58;;;;;;;50.40;27.47;;;20.60;68.00;;;;;;4994021;28;20189;-87
2021/07/22 04:52:24;;;;;;;48.77;25.87;;;20.60;68.00;;;;;;4992928;28;20442;-87
2021/07/22 04:54:50;;;;;;;60.73;28.17;;;20.70;68.00;;;;;;4994533;28;20183;-87
2021/07/22 04:57:16;;;;;;;56.00;27.03;;;20.70;67.80;;;;;;4994789;28;20501;-88
2021/07/22 04:59:41;;;;;;;54.73;27.93;;;20.50;68.00;;;;;;4998087;28;20183;-86
2021/07/22 05:02:07;;;;;;;43.83;24.80;;;20.70;68.10;;;;;;4999652;28;20195;-86
2021/07/22 05:04:33;;;;;;;50.33;26.57;;;20.60;68.10;;;;;;4994744;28;20418;-86
2021/07/22 05:06:58;;;;;;;48.40;25.03;;;20.60;68.10;;;;;;4993247;28;20211;-86
2021/07/22 05:09:24;;;;;;;52.20;27.57;;;20.60;68.00;;;;;;4993233;28;20643;-86
2021/07/22 05:11:50;;;;;;;54.03;25.67;;;20.70;68.10;;;;;;4993844;28;20234;-85
2021/07/22 05:14:16;;;;;;;61.03;27.90;;;20.60;67.90;;;;;;4995347;28;20215;-85
2021/07/22 05:16:41;;;;;;;52.23;27.80;;;20.60;68.10;;;;;;4995055;28;20534;-86
2021/07/22 05:19:09;;;;;;;54.13;26.67;;;20.60;68.00;;;;;;4994396;28;20189;-87
2021/07/22 05:21:35;;;;;;;52.33;23.75;;;20.60;68.00;;;;;;4995484;28;20187;-86
2021/07/22 05:24:00;;;;;;;48.63;26.17;;;20.70;68.10;;;;;;5009287;28;20314;-86
2021/07/22 05:26:26;;;;;;;52.50;24.60;;;20.70;68.00;;;;;;4994635;28;20225;-87
2021/07/22 05:28:52;;;;;;;47.00;22.67;;;20.70;68.20;;;;;;4993171;28;20620;-86
2021/07/22 05:31:17;;;;;;;48.30;23.40;;;20.90;67.70;;;;;;4992419;28;20201;-86
2021/07/22 05:33:43;;;;;;;41.43;22.53;;;21.30;67.70;;;;;;4994501;28;20187;-86
2021/07/22 05:36:09;;;;;;;40.60;20.90;;;21.90;65.80;;;;;;4994113;28;20175;-87
2021/07/22 05:38:37;;;;;;;39.13;23.40;;;22.10;64.40;;;;;;4998616;28;20296;-86
2021/07/22 05:41:07;;;;;;;39.93;21.43;;;22.50;63.40;;;;;;5029738;28;20452;-87
2021/07/22 05:43:33;;;;;;;41.13;20.80;;;23.10;62.10;;;;;;5028289;28;20437;-86
2021/07/22 05:46:01;;;;;;;35.60;20.03;;;23.20;61.70;;;;;;5028640;28;20457;-86
2021/07/22 05:48:27;;;;;;;38.63;21.50;;;23.80;60.00;;;;;;5014347;28;20435;-84
2021/07/22 05:50:53;;;;;;;32.47;20.03;;;24.70;58.00;;;;;;5014662;28;20440;-86
2021/07/22 05:53:19;;;;;;;37.53;20.20;;;25.50;55.20;;;;;;5015685;28;20248;-86
2021/07/22 05:55:45;;;;;;;35.27;19.33;;;26.30;53.20;;;;;;5016489;28;20824;-86
2021/07/22 05:58:12;;;;;;;38.30;20.60;;;26.90;50.50;;;;;;5021160;28;20921;-87
2021/07/22 06:00:37;;;;;;;33.17;19.00;;;27.40;49.50;;;;;;5000052;28;20472;-88
2021/07/22 06:03:07;;;;;;;28.80;20.23;;;27.70;48.10;;;;;;4996284;28;20529;-87
2021/07/22 06:05:34;;;;;;;31.17;19.80;;;27.40;48.90;;;;;;4997381;28;20414;-86
2021/07/22 06:08:03;;;;;;;31.60;18.20;;;27.70;48.30;;;;;;4996995;28;20433;-88
2021/07/22 06:10:30;;;;;;;28.03;17.40;;;27.40;48.30;;;;;;4996992;28;20925;-88
2021/07/22 06:12:57;;;;;;;34.53;20.20;;;27.40;48.50;;;;;;5000396;28;20538;-88
2021/07/22 06:15:23;;;;;;;33.83;19.97;;;27.30;48.50;;;;;;5025497;28;20419;-88
2021/07/22 06:17:49;;;;;;;26.30;18.10;;;27.70;48.50;;;;;;5015321;28;20422;-88
2021/07/22 06:20:15;;;;;;;25.03;18.27;;;27.70;47.30;;;;;;5012950;28;20938;-88
2021/07/22 06:22:44;;;;;;;30.30;19.37;;;28.00;47.70;;;;;;4997145;28;20648;-88
2021/07/22 06:25:18;;;;;;;28.53;17.73;;;27.60;47.40;;;;;;4998344;28;20450;-88
2021/07/22 06:27:44;;;;;;;27.67;17.53;;;27.00;48.60;;;;;;4997791;28;20984;-88
2021/07/22 06:30:11;;;;;;;27.33;18.40;;;26.60;49.50;;;;;;5012634;28;20446;-89
2021/07/22 06:32:37;;;;;;;25.53;18.13;;;26.60;50.30;;;;;;4995622;28;20208;-88
2021/07/22 06:35:04;;;;;;;31.17;18.57;;;26.40;50.60;;;;;;4997208;28;20421;-89
2021/07/22 06:37:43;;;;;;;20.97;15.53;;;26.60;50.60;;;;;;4996731;28;20868;-91
2021/07/22 06:40:09;;;;;;;28.37;18.20;;;27.10;50.20;;;;;;5015355;28;20421;-94
2021/07/22 06:42:34;;;;;;;28.30;16.10;;;27.40;48.70;;;;;;5033532;28;20847;-94
2021/07/22 06:45:00;;;;;;;29.40;18.97;;;27.50;48.50;;;;;;5033588;28;20418;-93
2021/07/22 06:47:26;;;;;;;21.00;14.57;;;27.20;49.10;;;;;;5033471;28;20544;-93
2021/07/22 06:49:52;;;;;;;25.90;16.77;;;27.00;49.90;;;;;;5033530;28;20186;-94
2021/07/22 06:52:18;;;;;;;25.77;14.80;;;26.80;49.30;;;;;;5033182;28;20272;-94
2021/07/22 06:54:44;;;;;;;21.33;14.60;;;26.80;49.60;;;;;;5039663;28;20420;-93
2021/07/22 06:57:09;;;;;;;25.17;16.00;;;26.20;50.50;;;;;;5038371;28;20443;-94
2021/07/22 06:59:35;;;;;;;24.37;14.60;;;26.20;51.90;;;;;;5033872;28;20662;-89
2021/07/22 07:02:01;;;;;;;25.97;15.13;;;25.60;52.00;;;;;;5033445;28;20578;-89
2021/07/22 07:04:27;;;;;;;28.00;15.13;;;25.40;53.30;;;;;;5030717;28;20579;-90
2021/07/22 07:06:52;;;;;;;21.83;13.80;;;25.70;52.70;;;;;;5032005;28;20670;-90
2021/07/22 07:09:18;;;;;;;26.10;15.50;;;25.90;52.40;;;;;;5032956;28;20504;-90
2021/07/22 07:11:44;;;;;;;25.10;14.83;;;25.80;52.50;;;;;;5015710;28;20609;-91
2021/07/22 07:14:09;;;;;;;29.37;15.40;;;25.80;52.50;;;;;;5031675;28;20221;-91
2021/07/22 07:16:39;;;;;;;26.97;14.93;;;25.40;53.40;;;;;;5032452;28;20182;-91
2021/07/22 07:19:07;;;;;;;22.13;14.00;;;25.20;54.70;;;;;;5034147;28;20199;-90
2021/07/22 07:21:37;;;;;;;23.60;14.17;;;24.90;56.00;;;;;;5019545;28;20417;-91
2021/07/22 07:24:02;;;;;;;25.40;13.00;;;24.60;56.70;;;;;;5034409;28;20452;-90
2021/07/22 07:26:28;;;;;;;26.30;15.10;;;24.50;57.30;;;;;;5035507;28;20464;-91
2021/07/22 07:28:54;;;;;;;26.07;16.53;;;24.30;57.60;;;;;;5035854;28;20182;-91
2021/07/22 07:31:23;;;;;;;19.70;12.93;;;24.80;57.30;;;;;;5036315;28;20201;-91
2021/07/22 07:33:49;;;;;;;23.77;13.40;;;24.80;57.20;;;;;;5038122;28;20183;-92
2021/07/22 07:36:15;;;;;;;21.97;13.83;;;25.00;56.50;;;;;;5048713;28;20437;-92
2021/07/22 07:38:41;;;;;;;20.63;12.93;;;24.80;56.40;;;;;;5032970;28;20406;-93
2021/07/22 07:41:07;;;;;;;20.10;12.73;;;24.90;56.60;;;;;;5034012;28;20186;-92
2021/07/22 07:43:32;;;;;;;24.17;15.67;;;24.90;56.40;;;;;;5035056;28;20233;-91
2021/07/22 07:45:58;;;;;;;26.90;15.30;;;24.80;56.80;;;;;;5033552;28;20471;-92
2021/07/22 07:48:24;;;;;;;23.40;13.87;;;24.60;57.50;;;;;;5032619;28;20167;-92
2021/07/22 07:50:50;;;;;;;26.53;13.57;;;24.60;57.60;;;;;;5030639;28;20438;-92
2021/07/22 07:53:18;;;;;;;21.70;13.33;;;24.50;58.10;;;;;;5032348;28;20197;-91
2021/07/22 07:55:44;;;;;;;23.50;14.67;;;24.50;58.10;;;;;;5031942;28;20170;-92
2021/07/22 07:58:10;;;;;;;27.90;14.87;;;24.60;58.00;;;;;;5031506;28;20746;-92
2021/07/22 08:00:36;;;;;;;24.63;13.13;;;24.30;59.10;;;;;;5031901;28;20608;-91
2021/07/22 08:03:06;;;;;;;27.90;13.80;;;24.00;59.90;;;;;;5031339;28;20534;-91
2021/07/22 08:05:32;;;;;;;22.03;13.53;;;24.00;59.90;;;;;;5032913;28;20421;-92
2021/07/22 08:07:58;;;;;;;20.20;12.93;;;24.30;59.30;;;;;;5032030;28;20435;-91
2021/07/22 08:10:24;;;;;;;17.10;12.53;;;24.20;59.00;;;;;;5031779;28;20427;-91
2021/07/22 08:12:50;;;;;;;21.40;12.40;;;24.00;60.00;;;;;;5033696;28;20465;-92
2021/07/22 08:15:16;;;;;;;30.70;15.37;;;23.90;60.40;;;;;;5032498;28;20183;-92
2021/07/22 08:17:42;;;;;;;22.03;13.50;;;24.10;60.00;;;;;;5032541;28;20556;-92
2021/07/22 08:20:10;;;;;;;31.23;14.90;;;24.20;59.30;;;;;;5032363;28;20674;-92
2021/07/22 08:22:38;;;;;;;25.87;13.60;;;24.20;59.30;;;;;;5031505;28;20446;-91
2021/07/22 08:25:04;;;;;;;23.80;14.73;;;24.20;59.20;;;;;;5031943;28;21017;-92
2021/07/22 08:27:32;;;;;;;23.97;15.50;;;24.20;58.60;;;;;;5031838;28;20465;-92
2021/07/22 08:29:58;;;;;;;23.60;14.47;;;24.10;58.70;;;;;;5030788;28;20612;-91
2021/07/22 08:32:25;;;;;;;26.60;15.70;;;23.80;58.60;;;;;;5030747;28;20843;-92
2021/07/22 08:34:51;;;;;;;26.53;15.87;;;24.00;58.20;;;;;;5030980;28;20471;-92
2021/07/22 08:37:17;;;;;;;22.83;14.20;;;24.20;57.90;;;;;;5032235;28;20429;-92
2021/07/22 08:39:50;;;;;;;23.77;13.30;;;24.30;57.90;;;;;;5032155;28;20984;-91
2021/07/22 08:42:16;;;;;;;24.03;15.20;;;24.30;58.50;;;;;;5047027;28;20445;-91
2021/07/22 08:44:43;;;;;;;23.00;14.50;;;24.20;58.50;;;;;;5041142;28;20887;-92
2021/07/22 08:47:10;;;;;;;20.40;13.80;;;24.50;59.20;;;;;;5032814;28;20205;-91
2021/07/22 08:49:40;;;;;;;21.97;15.47;;;24.80;57.70;;;;;;5039466;28;20417;-91
2021/07/22 08:52:08;;;;;;;23.50;15.50;;;24.70;58.00;;;;;;5036289;28;20521;-91
2021/07/22 08:54:34;;;;;;;27.57;18.10;;;24.60;57.20;;;;;;5032994;28;20535;-91
2021/07/22 08:57:02;;;;;;;23.50;14.90;;;24.40;57.50;;;;;;5032365;28;20920;-91
2021/07/22 08:59:33;;;;;;;26.00;14.10;;;24.50;58.10;;;;;;5030527;28;20512;-91
2021/07/22 09:02:00;;;;;;;26.47;15.03;;;24.70;57.40;;;;;;5030613;28;20445;-91
2021/07/22 09:04:29;;;;;;;28.23;15.10;;;24.80;57.30;;;;;;5031665;28;20468;-91
2021/07/22 09:06:57;;;;;;;22.80;14.00;;;24.80;56.40;;;;;;5013427;28;20499;-91
2021/07/22 09:09:23;;;;;;;19.97;13.97;;;24.90;55.80;;;;;;4997304;28;20916;-91
2021/07/22 09:11:56;;;;;;;22.13;13.90;;;25.10;54.70;;;;;;5029270;28;20441;-91
2021/07/22 09:14:23;;;;;;;22.57;13.10;;;25.20;53.90;;;;;;5029365;28;20464;-91
2021/07/22 09:16:49;;;;;;;18.77;11.77;;;25.10;54.10;;;;;;5029930;28;20429;-91
2021/07/22 09:19:31;;;;;;;25.00;14.10;;;24.80;54.90;;;;;;5029805;28;20432;-92
2021/07/22 09:21:57;;;;;;;25.73;14.33;;;24.50;55.60;;;;;;5030603;28;20199;-91
2021/07/22 09:24:23;;;;;;;18.70;11.40;;;24.50;55.90;;;;;;5029974;28;20424;-91
2021/07/22 09:26:51;;;;;;;19.40;13.20;;;24.70;55.50;;;;;;5029402;28;20461;-92
2021/07/22 09:29:18;;;;;;;19.97;12.40;;;24.90;54.80;;;;;;5028825;28;20182;-92
2021/07/22 09:31:44;;;;;;;18.47;12.90;;;24.80;55.00;;;;;;4993910;28;20441;-92
2021/07/22 09:34:22;;;;;;;16.77;11.17;;;24.60;53.60;;;;;;4993671;28;20486;-91
2021/07/22 09:36:48;;;;;;;18.37;12.40;;;24.40;53.60;;;;;;5011595;28;20426;-91
2021/07/22 09:39:30;;;;;;;19.70;13.30;;;24.50;54.30;;;;;;5004663;28;20469;-92
2021/07/22 09:42:05;;;;;;;18.37;14.33;;;24.50;54.60;;;;;;4994675;28;20202;-91
2021/07/22 09:44:39;;;;;;;20.47;13.57;;;24.40;54.90;;;;;;4994122;28;20460;-92
2021/07/22 09:47:06;;;;;;;17.07;13.37;;;24.40;55.10;;;;;;5008194;28;20465;-92
2021/07/22 09:49:32;;;;;;;17.83;12.60;;;24.40;54.90;;;;;;5001917;28;20537;-91
2021/07/22 09:52:03;;;;;;;18.87;13.20;;;24.50;55.00;;;;;;4993576;28;20520;-91
2021/07/22 09:54:37;;;;;;;14.43;10.70;;;24.80;54.80;;;;;;4994393;28;20932;-92
2021/07/22 09:57:18;;;;;;;18.77;11.57;;;24.70;54.50;;;;;;4994412;28;20419;-92
2021/07/22 09:59:45;;;;;;;15.47;10.67;;;24.70;52.20;;;;;;4993621;28;20428;-91
2021/07/22 10:02:24;;;;;;;18.40;12.43;;;24.70;52.10;;;;;;4994427;28;20445;-92
2021/07/22 10:05:03;;;;;;;17.77;12.57;;;24.40;52.80;;;;;;4993702;28;20477;-92
2021/07/22 10:07:30;;;;;;;17.97;12.50;;;24.40;52.90;;;;;;4993606;28;20525;-92
2021/07/22 10:09:58;;;;;;;16.80;11.83;;;24.40;52.70;;;;;;4993272;28;20430;-91
2021/07/22 10:12:24;;;;;;;18.03;10.80;;;24.50;52.40;;;;;;4994975;28;20481;-91
2021/07/22 10:14:55;;;;;;;14.40;9.63;;;24.80;52.40;;;;;;4994430;28;20897;-92
2021/07/22 10:17:33;;;;;;;12.93;9.20;;;24.80;52.70;;;;;;4993496;28;20423;-91
2021/07/22 10:20:05;;;;;;;14.63;9.67;;;24.60;52.40;;;;;;4993241;28;20414;-92
2021/07/22 10:22:34;;;;;;;15.93;9.73;;;24.90;49.80;;;;;;4992788;28;20444;-91
2021/07/22 10:25:00;;;;;;;16.07;9.20;;;24.80;50.50;;;;;;4993746;28;20414;-92
2021/07/22 10:27:26;;;;;;;15.60;9.87;;;24.50;51.70;;;;;;4994606;28;20488;-92
2021/07/22 10:29:53;;;;;;;15.80;9.87;;;24.80;51.00;;;;;;4993266;28;20936;-92
2021/07/22 10:32:22;;;;;;;13.30;9.70;;;25.00;50.80;;;;;;4993174;28;20435;-91
2021/07/22 10:34:49;;;;;;;16.33;9.13;;;25.10;50.30;;;;;;4993089;28;20407;-92
2021/07/22 10:37:18;;;;;;;16.77;9.93;;;25.30;50.20;;;;;;4993010;28;20425;-92
2021/07/22 10:40:07;;;;;;;19.43;9.00;;;25.00;50.90;;;;;;4996212;28;20508;-92
2021/07/22 10:42:43;;;;;;;15.80;10.60;;;25.00;51.20;;;;;;5003998;28;20462;-91
2021/07/22 10:45:21;;;;;;;11.10;8.87;;;24.90;51.10;;;;;;5004428;28;20416;-91
2021/07/22 10:47:59;;;;;;;14.40;8.37;;;25.00;51.20;;;;;;4996741;28;20476;-91
2021/07/22 10:50:41;;;;;;;16.70;8.90;;;25.20;50.50;;;;;;4996467;28;20422;-91
2021/07/22 10:53:07;;;;;;;13.53;9.83;;;25.60;49.40;;;;;;5009612;28;20418;-91
2021/07/22 10:55:42;;;;;;;16.90;10.30;;;25.60;49.50;;;;;;5001406;28;20441;-91
2021/07/22 10:58:23;;;;;;;15.50;10.57;;;25.60;49.80;;;;;;4997715;28;20413;-91
2021/07/22 11:00:49;;;;;;;16.40;9.93;;;25.60;49.60;;;;;;4998620;28;21021;-91
2021/07/22 11:03:34;;;;;;;14.67;11.50;;;25.60;50.20;;;;;;4998951;28;20450;-92
2021/07/22 11:06:01;;;;;;;16.73;11.20;;;25.30;50.80;;;;;;4998991;28;20425;-91
2021/07/22 11:08:29;;;;;;;13.90;9.70;;;25.20;51.30;;;;;;4997400;28;20831;-91
2021/07/22 11:11:03;;;;;;;9.87;8.37;;;25.10;51.70;;;;;;4997125;28;20454;-91
2021/07/22 11:13:41;;;;;;;13.30;9.30;;;25.30;50.80;;;;;;4997281;28;20820;-91
2021/07/22 11:16:11;;;;;;;9.87;8.00;;;25.40;50.50;;;;;;4997194;28;20422;-92
2021/07/22 11:18:40;;;;;;;11.73;9.30;;;25.40;50.00;;;;;;4996127;28;20421;-92
2021/07/22 11:21:07;;;;;;;18.40;10.03;;;25.30;50.20;;;;;;4996223;28;20414;-91
2021/07/22 11:23:33;;;;;;;16.10;10.37;;;25.50;50.20;;;;;;4998523;28;20518;-92
2021/07/22 11:25:59;;;;;;;14.67;10.23;;;25.50;50.10;;;;;;4997003;28;20786;-91
2021/07/22 11:28:26;;;;;;;11.77;9.23;;;25.30;50.40;;;;;;4997345;28;20425;-92
2021/07/22 11:31:00;;;;;;;11.73;8.53;;;25.10;50.80;;;;;;4998673;28;20486;-92
2021/07/22 11:33:31;;;;;;;15.90;9.00;;;25.10;50.40;;;;;;4996828;28;20484;-92
2021/07/22 11:36:03;;;;;;;11.37;9.33;;;25.10;50.90;;;;;;4999694;28;20477;-91
2021/07/22 11:38:29;;;;;;;14.30;9.97;;;25.30;50.40;;;;;;4997233;28;20472;-92
2021/07/22 11:40:56;;;;;;;12.93;10.13;;;25.40;51.00;;;;;;5004085;28;20457;-92
2021/07/22 11:43:36;;;;;;;16.40;9.13;;;25.60;49.90;;;;;;5002304;28;20435;-92
2021/07/22 11:46:03;;;;;;;11.70;9.00;;;25.90;49.00;;;;;;5000979;28;20466;-91
2021/07/22 11:48:29;;;;;;;14.03;9.20;;;25.80;48.20;;;;;;5003905;28;20419;-92
2021/07/22 11:51:04;;;;;;;16.90;8.97;;;25.80;47.10;;;;;;5002601;28;20425;-92
2021/07/22 11:53:30;;;;;;;14.70;9.40;;;25.70;47.70;;;;;;5003522;28;20226;-92
2021/07/22 11:56:14;;;;;;;17.30;9.27;;;25.80;47.30;;;;;;5004100;28;20418;-92
2021/07/22 11:58:48;;;;;;;16.23;9.67;;;25.80;46.60;;;;;;5006928;28;20502;-92
2021/07/22 12:01:20;;;;;;;14.17;8.07;;;25.60;47.80;;;;;;5009419;28;20476;-92
2021/07/22 12:03:47;;;;;;;12.67;8.47;;;25.60;47.90;;;;;;5000196;28;20418;-92
2021/07/22 12:06:20;;;;;;;12.37;9.83;;;25.50;48.60;;;;;;5010700;28;20470;-92
2021/07/22 12:08:46;;;;;;;12.17;7.90;;;25.80;48.40;;;;;;4995896;28;20446;-91
2021/07/22 12:11:12;;;;;;;12.37;9.70;;;26.00;47.50;;;;;;4995071;28;20521;-92
2021/07/22 12:13:52;;;;;;;12.17;8.87;;;25.70;46.50;;;;;;4994799;28;20949;-92
2021/07/22 12:16:24;;;;;;;15.87;8.83;;;25.50;47.10;;;;;;4996229;28;20449;-92
2021/07/22 12:18:52;;;;;;;19.50;9.30;;;25.60;47.40;;;;;;4995186;28;20508;-92
2021/07/22 12:21:29;;;;;;;11.43;7.83;;;25.40;47.30;;;;;;4996620;28;20445;-92
2021/07/22 12:24:15;;;;;;;8.73;6.73;;;25.60;47.20;;;;;;4995245;28;20429;-92
2021/07/22 12:26:41;;;;;;;13.03;7.43;;;25.50;47.70;;;;;;4997803;28;20485;-92
2021/07/22 12:29:07;;;;;;;8.63;7.10;;;25.40;47.50;;;;;;4995120;28;20925;-92
2021/07/22 12:31:38;;;;;;;14.23;8.40;;;25.70;45.90;;;;;;4994495;28;20211;-92